sensor_id;sensor_type;location;lat;lon;timestamp;pressure;altitude;pressure_sealevel;temperature;humidity
76694;BME280;65625;52.136;5.424;2023-03-11T00:02:12;100822.59;;;-0.64;100.00
76694;BME280;65625;52.136;5.424;2023-03-11T00:04:39;100819.06;;;-0.64;100.00
76694;BME280;65625;52.136;5.424;2023-03-11T00:07:07;100819.03;;;-0.63;100.00
76694;BME280;65625;52.136;5.424;2023-03-11T00:09:34;100826.78;;;-0.57;100.00
76694;BME280;65625;52.136;5.424;2023-03-11T00:12:01;100832.81;;;-0.52;100.00
76694;BME280;65625;52.136;5.424;2023-03-11T00:14:28;100834.56;;;-0.51;100.00
76694;BME280;65625;52.136;5.424;2023-03-11T00:16:54;100833.59;;;-0.48;100.00
76694;BME280;65625;52.136;5.424;2023-03-11T00:19:21;100844.13;;;-0.47;100.00
76694;BME280;65625;52.136;5.424;2023-03-11T00:21:47;100840.66;;;-0.47;100.00
76694;BME280;65625;52.136;5.424;2023-03-11T00:24:14;100842.38;;;-0.46;100.00
76694;BME280;65625;52.136;5.424;2023-03-11T00:26:40;100836.16;;;-0.45;100.00
76694;BME280;65625;52.136;5.424;2023-03-11T00:29:06;100841.47;;;-0.45;100.00
76694;BME280;65625;52.136;5.424;2023-03-11T00:31:33;100839.66;;;-0.45;100.00
76694;BME280;65625;52.136;5.424;2023-03-11T00:34:00;100845.03;;;-0.46;100.00
76694;BME280;65625;52.136;5.424;2023-03-11T00:36:28;100846.03;;;-0.50;100.00
76694;BME280;65625;52.136;5.424;2023-03-11T00:38:58;100858.47;;;-0.52;100.00
76694;BME280;65625;52.136;5.424;2023-03-11T00:41:25;100861.22;;;-0.55;100.00
76694;BME280;65625;52.136;5.424;2023-03-11T00:43:51;100871.88;;;-0.58;100.00
76694;BME280;65625;52.136;5.424;2023-03-11T00:46:18;100870.06;;;-0.56;100.00
76694;BME280;65625;52.136;5.424;2023-03-11T00:48:44;100872.63;;;-0.53;100.00
76694;BME280;65625;52.136;5.424;2023-03-11T00:51:13;100872.63;;;-0.53;100.00
76694;BME280;65625;52.136;5.424;2023-03-11T00:53:41;100866.47;;;-0.54;100.00
76694;BME280;65625;52.136;5.424;2023-03-11T00:56:13;100873.53;;;-0.54;100.00
76694;BME280;65625;52.136;5.424;2023-03-11T00:58:42;100884.09;;;-0.53;100.00
76694;BME280;65625;52.136;5.424;2023-03-11T01:01:11;100887.53;;;-0.49;100.00
76694;BME280;65625;52.136;5.424;2023-03-11T01:03:39;100881.22;;;-0.45;100.00
76694;BME280;65625;52.136;5.424;2023-03-11T01:06:06;100885.50;;;-0.41;100.00
76694;BME280;65625;52.136;5.424;2023-03-11T01:08:33;100889.00;;;-0.39;100.00
76694;BME280;65625;52.136;5.424;2023-03-11T01:11:00;100882.75;;;-0.38;100.00
76694;BME280;65625;52.136;5.424;2023-03-11T01:13:27;100889.81;;;-0.37;100.00
76694;BME280;65625;52.136;5.424;2023-03-11T01:15:55;100893.31;;;-0.35;100.00
76694;BME280;65625;52.136;5.424;2023-03-11T01:18:23;100893.31;;;-0.35;100.00
76694;BME280;65625;52.136;5.424;2023-03-11T01:20:50;100899.53;;;-0.38;100.00
76694;BME280;65625;52.136;5.424;2023-03-11T01:23:18;100901.38;;;-0.40;100.00
76694;BME280;65625;52.136;5.424;2023-03-11T01:25:45;100904.06;;;-0.41;100.00
76694;BME280;65625;52.136;5.424;2023-03-11T01:28:12;100903.19;;;-0.42;100.00
76694;BME280;65625;52.136;5.424;2023-03-11T01:30:39;100912.75;;;-0.36;100.00
76694;BME280;65625;52.136;5.424;2023-03-11T01:33:10;100910.88;;;-0.33;100.00
76694;BME280;65625;52.136;5.424;2023-03-11T01:35:38;100911.72;;;-0.31;100.00
76694;BME280;65625;52.136;5.424;2023-03-11T01:38:07;100918.78;;;-0.31;100.00
76694;BME280;65625;52.136;5.424;2023-03-11T01:40:40;100919.63;;;-0.29;100.00
76694;BME280;65625;52.136;5.424;2023-03-11T01:47:23;100914.31;;;-0.29;100.00
76694;BME280;65625;52.136;5.424;2023-03-11T01:49:10;100915.91;;;-0.24;100.00
76694;BME280;65625;52.136;5.424;2023-03-11T01:51:39;100912.50;;;-0.27;100.00
76694;BME280;65625;52.136;5.424;2023-03-11T01:54:11;100911.50;;;-0.25;100.00
76694;BME280;65625;52.136;5.424;2023-03-11T01:56:40;100911.56;;;-0.26;100.00
76694;BME280;65625;52.136;5.424;2023-03-11T01:59:10;100911.50;;;-0.25;100.00
76694;BME280;65625;52.136;5.424;2023-03-11T02:01:45;100917.66;;;-0.23;100.00
76694;BME280;65625;52.136;5.424;2023-03-11T02:04:14;100919.41;;;-0.23;100.00
76694;BME280;65625;52.136;5.424;2023-03-11T02:06:41;100914.13;;;-0.23;100.00
76694;BME280;65625;52.136;5.424;2023-03-11T02:09:08;100914.06;;;-0.22;100.00
76694;BME280;65625;52.136;5.424;2023-03-11T02:11:35;100914.06;;;-0.22;100.00
76694;BME280;65625;52.136;5.424;2023-03-11T02:14:03;100919.41;;;-0.23;100.00
76694;BME280;65625;52.136;5.424;2023-03-11T02:16:31;100927.41;;;-0.25;100.00
76694;BME280;65625;52.136;5.424;2023-03-11T02:19:04;100926.53;;;-0.24;100.00
76694;BME280;65625;52.136;5.424;2023-03-11T02:21:34;100928.31;;;-0.24;100.00
76694;BME280;65625;52.136;5.424;2023-03-11T02:24:24;100931.84;;;-0.24;100.00
76694;BME280;65625;52.136;5.424;2023-03-11T02:27:02;100928.25;;;-0.23;100.00
76694;BME280;65625;52.136;5.424;2023-03-11T02:29:32;100934.38;;;-0.21;100.00
76694;BME280;65625;52.136;5.424;2023-03-11T02:32:04;100934.38;;;-0.21;100.00
76694;BME280;65625;52.136;5.424;2023-03-11T02:34:33;100938.81;;;-0.21;100.00
76694;BME280;65625;52.136;5.424;2023-03-11T02:37:04;100932.63;;;-0.22;100.00
76694;BME280;65625;52.136;5.424;2023-03-11T02:39:40;100933.69;;;-0.27;100.00
76694;BME280;65625;52.136;5.424;2023-03-11T02:42:22;100932.78;;;-0.26;100.00
76694;BME280;65625;52.136;5.424;2023-03-11T02:45:10;100947.81;;;-0.27;100.00
76694;BME280;65625;52.136;5.424;2023-03-11T02:47:38;100939.06;;;-0.29;100.00
76694;BME280;65625;52.136;5.424;2023-03-11T02:50:11;100933.81;;;-0.32;100.00
76694;BME280;65625;52.136;5.424;2023-03-11T02:52:39;100932.25;;;-0.37;100.00
76694;BME280;65625;52.136;5.424;2023-03-11T02:55:06;100928.91;;;-0.44;100.00
76694;BME280;65625;52.136;5.424;2023-03-11T02:57:33;100924.69;;;-0.51;100.00
76694;BME280;65625;52.136;5.424;2023-03-11T03:00:00;100928.50;;;-0.61;100.00
76694;BME280;65625;52.136;5.424;2023-03-11T03:02:41;100934.00;;;-0.67;100.00
76694;BME280;65625;52.136;5.424;2023-03-11T03:05:09;100940.47;;;-0.77;100.00
76694;BME280;65625;52.136;5.424;2023-03-11T03:07:36;100942.44;;;-0.85;100.00
76694;BME280;65625;52.136;5.424;2023-03-11T03:10:05;100954.13;;;-0.92;100.00
76694;BME280;65625;52.136;5.424;2023-03-11T03:12:31;100947.16;;;-0.96;100.00
76694;BME280;65625;52.136;5.424;2023-03-11T03:14:58;100949.06;;;-1.01;100.00
76694;BME280;65625;52.136;5.424;2023-03-11T03:17:24;100952.53;;;-0.99;100.00
76694;BME280;65625;52.136;5.424;2023-03-11T03:19:51;100956.09;;;-1.00;100.00
76694;BME280;65625;52.136;5.424;2023-03-11T03:22:17;100960.59;;;-1.02;100.00
76694;BME280;65625;52.136;5.424;2023-03-11T03:24:45;100962.41;;;-1.04;100.00
76694;BME280;65625;52.136;5.424;2023-03-11T03:27:11;100967.84;;;-1.10;100.00
76694;BME280;65625;52.136;5.424;2023-03-11T03:29:39;100974.97;;;-1.12;100.00
76694;BME280;65625;52.136;5.424;2023-03-11T03:32:06;100972.41;;;-1.16;100.00
76694;BME280;65625;52.136;5.424;2023-03-11T03:34:33;100980.41;;;-1.18;100.00
76694;BME280;65625;52.136;5.424;2023-03-11T03:36:59;100978.72;;;-1.20;100.00
76694;BME280;65625;52.136;5.424;2023-03-11T03:39:26;100977.88;;;-1.22;100.00
76694;BME280;65625;52.136;5.424;2023-03-11T03:41:56;100984.97;;;-1.24;100.00
76694;BME280;65625;52.136;5.424;2023-03-11T03:44:24;100996.53;;;-1.27;100.00
76694;BME280;65625;52.136;5.424;2023-03-11T03:46:51;100991.19;;;-1.25;100.00
76694;BME280;65625;52.136;5.424;2023-03-11T03:49:18;101003.56;;;-1.26;100.00
76694;BME280;65625;52.136;5.424;2023-03-11T03:51:45;101002.63;;;-1.25;100.00
76694;BME280;65625;52.136;5.424;2023-03-11T03:54:19;101005.22;;;-1.22;100.00
76694;BME280;65625;52.136;5.424;2023-03-11T03:56:46;101006.84;;;-1.16;100.00
76694;BME280;65625;52.136;5.424;2023-03-11T03:59:12;101005.91;;;-1.14;100.00
76694;BME280;65625;52.136;5.424;2023-03-11T04:01:44;101016.41;;;-1.11;100.00
76694;BME280;65625;52.136;5.424;2023-03-11T04:04:11;101016.34;;;-1.08;100.00
76694;BME280;65625;52.136;5.424;2023-03-11T04:06:38;101021.63;;;-1.08;100.00
76694;BME280;65625;52.136;5.424;2023-03-11T04:09:05;101025.13;;;-1.06;100.00
76694;BME280;65625;52.136;5.424;2023-03-11T04:11:33;101026.88;;;-1.06;100.00
76694;BME280;65625;52.136;5.424;2023-03-11T04:14:02;101024.19;;;-1.05;100.00
76694;BME280;65625;52.136;5.424;2023-03-11T04:16:31;101033.94;;;-1.05;100.00
76694;BME280;65625;52.136;5.424;2023-03-11T04:19:05;101025.16;;;-1.07;100.00
76694;BME280;65625;52.136;5.424;2023-03-11T04:21:33;101029.66;;;-1.11;100.00
76694;BME280;65625;52.136;5.424;2023-03-11T04:24:00;101035.06;;;-1.15;100.00
76694;BME280;65625;52.136;5.424;2023-03-11T04:26:31;101031.72;;;-1.22;100.00
76694;BME280;65625;52.136;5.424;2023-03-11T04:28:57;101037.94;;;-1.24;100.00
76694;BME280;65625;52.136;5.424;2023-03-11T04:31:27;101036.38;;;-1.33;100.00
76694;BME280;65625;52.136;5.424;2023-03-11T04:33:54;101026.84;;;-1.40;100.00
76694;BME280;65625;52.136;5.424;2023-03-11T04:36:21;101025.22;;;-1.46;100.00
76694;BME280;65625;52.136;5.424;2023-03-11T04:38:48;101028.88;;;-1.51;100.00
76694;BME280;65625;52.136;5.424;2023-03-11T04:41:15;101036.00;;;-1.55;100.00
76694;BME280;65625;52.136;5.424;2023-03-11T04:43:43;101039.66;;;-1.59;100.00
76694;BME280;65625;52.136;5.424;2023-03-11T04:46:09;101045.91;;;-1.63;100.00
76694;BME280;65625;52.136;5.424;2023-03-11T04:48:38;101050.34;;;-1.65;100.00
76694;BME280;65625;52.136;5.424;2023-03-11T04:51:06;101047.72;;;-1.65;100.00
76694;BME280;65625;52.136;5.424;2023-03-11T04:53:33;101054.81;;;-1.67;100.00
76694;BME280;65625;52.136;5.424;2023-03-11T04:56:00;101058.38;;;-1.68;100.00
76694;BME280;65625;52.136;5.424;2023-03-11T04:58:27;101057.56;;;-1.71;100.00
76694;BME280;65625;52.136;5.424;2023-03-11T05:00:54;101054.91;;;-1.71;100.00
76694;BME280;65625;52.136;5.424;2023-03-11T05:03:21;101062.03;;;-1.75;100.00
76694;BME280;65625;52.136;5.424;2023-03-11T05:05:48;101055.00;;;-1.74;100.00
76694;BME280;65625;52.136;5.424;2023-03-11T05:08:18;101063.84;;;-1.77;100.00
76694;BME280;65625;52.136;5.424;2023-03-11T05:10:44;101063.88;;;-1.78;100.00
76694;BME280;65625;52.136;5.424;2023-03-11T05:13:10;101056.94;;;-1.82;100.00
76694;BME280;65625;52.136;5.424;2023-03-11T05:15:38;101051.72;;;-1.87;100.00
76694;BME280;65625;52.136;5.424;2023-03-11T05:18:06;101056.16;;;-1.87;100.00
76694;BME280;65625;52.136;5.424;2023-03-11T05:20:34;101055.34;;;-1.91;100.00
76694;BME280;65625;52.136;5.424;2023-03-11T05:23:02;101053.66;;;-1.95;100.00
76694;BME280;65625;52.136;5.424;2023-03-11T05:25:31;101062.56;;;-1.97;100.00
76694;BME280;65625;52.136;5.424;2023-03-11T05:27:57;101065.28;;;-2.02;100.00
76694;BME280;65625;52.136;5.424;2023-03-11T05:30:24;101075.97;;;-2.08;100.00
76694;BME280;65625;52.136;5.424;2023-03-11T05:32:51;101081.34;;;-2.11;100.00
76694;BME280;65625;52.136;5.424;2023-03-11T05:35:18;101077.84;;;-2.13;100.00
76694;BME280;65625;52.136;5.424;2023-03-11T05:37:46;101087.59;;;-2.16;100.00
76694;BME280;65625;52.136;5.424;2023-03-11T05:40:16;101085.00;;;-2.18;100.00
76694;BME280;65625;52.136;5.424;2023-03-11T05:42:43;101088.56;;;-2.19;100.00
76694;BME280;65625;52.136;5.424;2023-03-11T05:45:12;101092.13;;;-2.21;100.00
76694;BME280;65625;52.136;5.424;2023-03-11T05:47:40;101095.63;;;-2.21;100.00
76694;BME280;65625;52.136;5.424;2023-03-11T05:50:10;101093.88;;;-2.22;100.00
76694;BME280;65625;52.136;5.424;2023-03-11T05:52:38;101093.03;;;-2.22;100.00
76694;BME280;65625;52.136;5.424;2023-03-11T05:55:05;101097.41;;;-2.21;100.00
76694;BME280;65625;52.136;5.424;2023-03-11T05:57:32;101099.16;;;-2.22;100.00
76694;BME280;65625;52.136;5.424;2023-03-11T05:59:59;101109.81;;;-2.25;100.00
76694;BME280;65625;52.136;5.424;2023-03-11T06:02:26;101115.09;;;-2.25;100.00
76694;BME280;65625;52.136;5.424;2023-03-11T06:04:53;101111.59;;;-2.25;100.00
76694;BME280;65625;52.136;5.424;2023-03-11T06:07:20;101120.38;;;-2.25;100.00
76694;BME280;65625;52.136;5.424;2023-03-11T06:09:49;101122.13;;;-2.24;100.00
76694;BME280;65625;52.136;5.424;2023-03-11T06:12:16;101116.78;;;-2.21;100.00
76694;BME280;65625;52.136;5.424;2023-03-11T06:15:12;101120.31;;;-2.20;100.00
76694;BME280;65625;52.136;5.424;2023-03-11T06:17:39;101123.75;;;-2.17;100.00
76694;BME280;65625;52.136;5.424;2023-03-11T06:20:07;101121.09;;;-2.17;100.00
76694;BME280;65625;52.136;5.424;2023-03-11T06:22:35;101128.97;;;-2.12;100.00
76694;BME280;65625;52.136;5.424;2023-03-11T06:25:06;101128.03;;;-2.11;100.00
76694;BME280;65625;52.136;5.424;2023-03-11T06:27:33;101124.53;;;-2.10;100.00
76694;BME280;65625;52.136;5.424;2023-03-11T06:30:01;101130.63;;;-2.08;100.00
76694;BME280;65625;52.136;5.424;2023-03-11T06:32:32;101138.56;;;-2.08;100.00
76694;BME280;65625;52.136;5.424;2023-03-11T06:35:00;101153.53;;;-2.07;100.00
76694;BME280;65625;52.136;5.424;2023-03-11T06:37:27;101155.28;;;-2.08;100.00
76694;BME280;65625;52.136;5.424;2023-03-11T06:39:54;101161.44;;;-2.06;100.00
76694;BME280;65625;52.136;5.424;2023-03-11T06:42:23;101156.97;;;-2.02;100.00
76694;BME280;65625;52.136;5.424;2023-03-11T06:44:52;101156.03;;;-2.00;100.00
76694;BME280;65625;52.136;5.424;2023-03-11T06:47:19;101159.47;;;-1.96;100.00
76694;BME280;65625;52.136;5.424;2023-03-11T06:49:46;101164.69;;;-1.93;100.00
76694;BME280;65625;52.136;5.424;2023-03-11T06:52:12;101159.31;;;-1.87;100.00
76694;BME280;65625;52.136;5.424;2023-03-11T06:54:39;101163.59;;;-1.82;100.00
76694;BME280;65625;52.136;5.424;2023-03-11T06:57:07;101162.59;;;-1.76;100.00
76694;BME280;65625;52.136;5.424;2023-03-11T06:59:35;101163.38;;;-1.71;100.00
76694;BME280;65625;52.136;5.424;2023-03-11T07:02:03;101164.22;;;-1.69;100.00
76694;BME280;65625;52.136;5.424;2023-03-11T07:04:31;101162.31;;;-1.63;100.00
76694;BME280;65625;52.136;5.424;2023-03-11T07:06:58;101171.94;;;-1.60;100.00
76694;BME280;65625;52.136;5.424;2023-03-11T07:09:24;101177.09;;;-1.53;100.00
76694;BME280;65625;52.136;5.424;2023-03-11T07:11:53;101188.34;;;-1.43;100.00
76694;BME280;65625;52.136;5.424;2023-03-11T07:14:26;101192.53;;;-1.32;100.00
76694;BME280;65625;52.136;5.424;2023-03-11T07:16:54;101187.91;;;-1.23;100.00
76694;BME280;65625;52.136;5.424;2023-03-11T07:19:27;101183.25;;;1.14;100.00
76694;BME280;65625;52.136;5.424;2023-03-11T07:21:53;101163.94;;;5.25;93.48
76694;BME280;65625;52.136;5.424;2023-03-11T07:24:20;101159.78;;;8.41;88.91
76694;BME280;65625;52.136;5.424;2023-03-11T07:26:47;101152.19;;;10.87;84.43
76694;BME280;65625;52.136;5.424;2023-03-11T07:29:13;101153.56;;;12.47;81.18
76694;BME280;65625;52.136;5.424;2023-03-11T07:31:40;101154.97;;;13.52;79.01
76694;BME280;65625;52.136;5.424;2023-03-11T07:34:12;101163.28;;;14.45;77.06
76694;BME280;65625;52.136;5.424;2023-03-11T07:36:40;101159.81;;;15.14;75.31
76694;BME280;65625;52.136;5.424;2023-03-11T07:39:12;101171.03;;;15.31;74.21
76694;BME280;65625;52.136;5.424;2023-03-11T07:41:39;101164.34;;;15.84;71.21
76694;BME280;65625;52.136;5.424;2023-03-11T07:44:05;101154.75;;;16.56;67.86
76694;BME280;65625;52.136;5.424;2023-03-11T07:46:35;101159.69;;;17.26;63.68
76694;BME280;65625;52.136;5.424;2023-03-11T07:49:01;101157.63;;;17.92;58.23
76694;BME280;65625;52.136;5.424;2023-03-11T07:51:31;101163.66;;;17.95;56.57
76694;BME280;65625;52.136;5.424;2023-03-11T07:53:59;101171.44;;;13.71;61.36
76694;BME280;65625;52.136;5.424;2023-03-11T07:56:29;101185.44;;;9.31;70.96
76694;BME280;65625;52.136;5.424;2023-03-11T07:58:57;101194.94;;;6.69;78.16
76694;BME280;65625;52.136;5.424;2023-03-11T08:01:26;101208.56;;;5.25;80.47
76694;BME280;65625;52.136;5.424;2023-03-11T08:03:55;101214.59;;;4.34;84.74
76694;BME280;65625;52.136;5.424;2023-03-11T08:06:26;101217.94;;;3.77;85.30
76694;BME280;65625;52.136;5.424;2023-03-11T08:08:54;101212.81;;;3.28;87.91
76694;BME280;65625;52.136;5.424;2023-03-11T08:11:20;101221.13;;;2.97;89.07
76694;BME280;65625;52.136;5.424;2023-03-11T08:13:48;101231.53;;;2.82;89.31
76694;BME280;65625;52.136;5.424;2023-03-11T08:16:19;101233.88;;;2.66;90.00
76694;BME280;65625;52.136;5.424;2023-03-11T08:18:48;101232.47;;;2.56;89.82
76694;BME280;65625;52.136;5.424;2023-03-11T08:21:17;101226.78;;;3.34;90.40
76694;BME280;65625;52.136;5.424;2023-03-11T08:23:44;101205.69;;;8.24;82.21
76694;BME280;65625;52.136;5.424;2023-03-11T08:26:14;101207.38;;;11.70;74.64
76694;BME280;65625;52.136;5.424;2023-03-11T08:28:42;101204.38;;;13.55;66.47
76694;BME280;65625;52.136;5.424;2023-03-11T08:31:21;101205.09;;;15.25;62.17
76694;BME280;65625;52.136;5.424;2023-03-11T08:33:50;101204.19;;;16.90;56.29
76694;BME280;65625;52.136;5.424;2023-03-11T08:36:18;101203.75;;;17.95;50.93
76694;BME280;65625;52.136;5.424;2023-03-11T08:38:45;101195.28;;;18.15;48.14
76694;BME280;65625;52.136;5.424;2023-03-11T08:41:12;101198.72;;;18.17;48.42
76694;BME280;65625;52.136;5.424;2023-03-11T08:43:39;101202.84;;;18.21;43.37
76694;BME280;65625;52.136;5.424;2023-03-11T08:46:07;101212.91;;;18.03;45.08
76694;BME280;65625;52.136;5.424;2023-03-11T08:48:36;101211.13;;;18.29;43.26
76694;BME280;65625;52.136;5.424;2023-03-11T08:51:09;101210.84;;;17.88;44.40
76694;BME280;65625;52.136;5.424;2023-03-11T08:53:35;101211.75;;;18.06;42.14
76694;BME280;65625;52.136;5.424;2023-03-11T08:56:03;101211.13;;;18.29;41.35
76694;BME280;65625;52.136;5.424;2023-03-11T08:58:29;101201.34;;;18.79;41.71
76694;BME280;65625;52.136;5.424;2023-03-11T09:00:56;101207.44;;;19.42;38.85
76694;BME280;65625;52.136;5.424;2023-03-11T09:03:22;101217.91;;;18.08;37.68
76694;BME280;65625;52.136;5.424;2023-03-11T09:05:55;101228.47;;;18.90;38.95
76694;BME280;65625;52.136;5.424;2023-03-11T09:08:22;101234.69;;;19.26;37.26
76694;BME280;65625;52.136;5.424;2023-03-11T09:10:49;101238.25;;;18.75;35.57
76694;BME280;65625;52.136;5.424;2023-03-11T09:13:15;101232.59;;;18.07;35.25
76694;BME280;65625;52.136;5.424;2023-03-11T09:15:41;101241.34;;;17.83;39.34
76694;BME280;65625;52.136;5.424;2023-03-11T09:18:12;101245.66;;;15.68;41.51
76694;BME280;65625;52.136;5.424;2023-03-11T09:20:40;101262.06;;;13.90;46.32
76694;BME280;65625;52.136;5.424;2023-03-11T09:23:07;101258.50;;;13.13;45.86
76694;BME280;65625;52.136;5.424;2023-03-11T09:25:34;101261.03;;;11.99;48.23
76694;BME280;65625;52.136;5.424;2023-03-11T09:28:01;101261.31;;;12.54;50.51
76694;BME280;65625;52.136;5.424;2023-03-11T09:30:27;101255.06;;;12.65;54.52
76694;BME280;65625;52.136;5.424;2023-03-11T09:32:54;101261.56;;;12.04;51.83
76694;BME280;65625;52.136;5.424;2023-03-11T09:35:21;101254.00;;;11.97;51.17
76694;BME280;65625;52.136;5.424;2023-03-11T09:37:47;101264.72;;;11.49;53.61
76694;BME280;65625;52.136;5.424;2023-03-11T09:40:15;101257.06;;;11.18;51.59
76694;BME280;65625;52.136;5.424;2023-03-11T09:43:21;101253.06;;;11.24;54.22
76694;BME280;65625;52.136;5.424;2023-03-11T09:45:54;101247.44;;;13.27;48.83
76694;BME280;65625;52.136;5.424;2023-03-11T09:48:48;101241.97;;;16.47;42.52
76694;BME280;65625;52.136;5.424;2023-03-11T09:51:30;101243.53;;;17.80;40.57
76694;BME280;65625;52.136;5.424;2023-03-11T09:54:02;101249.38;;;17.85;35.26
76694;BME280;65625;52.136;5.424;2023-03-11T09:56:30;101257.88;;;18.09;39.31
76694;BME280;65625;52.136;5.424;2023-03-11T09:59:03;101256.63;;;18.48;36.34
76694;BME280;65625;52.136;5.424;2023-03-11T10:01:34;101247.03;;;17.72;37.92
76694;BME280;65625;52.136;5.424;2023-03-11T10:04:13;101249.13;;;16.48;38.06
76694;BME280;65625;52.136;5.424;2023-03-11T10:06:45;101248.47;;;15.87;40.79
76694;BME280;65625;52.136;5.424;2023-03-11T10:09:50;101264.06;;;13.44;48.85
76694;BME280;65625;52.136;5.424;2023-03-11T10:18:00;101263.78;;;11.13;52.70
76694;BME280;65625;52.136;5.424;2023-03-11T10:21:00;101273.50;;;10.90;53.67
76694;BME280;65625;52.136;5.424;2023-03-11T10:24:00;101269.31;;;12.09;49.93
76694;BME280;65625;52.136;5.424;2023-03-11T10:27:00;101274.56;;;12.46;52.08
76694;BME280;65625;52.136;5.424;2023-03-11T10:32:41;101256.78;;;15.25;45.35
76694;BME280;65625;52.136;5.424;2023-03-11T10:35:19;101253.16;;;16.82;42.01
76694;BME280;65625;52.136;5.424;2023-03-11T10:37:52;101256.59;;;16.65;41.10
76694;BME280;65625;52.136;5.424;2023-03-11T10:40:33;101268.44;;;14.54;44.40
76694;BME280;65625;52.136;5.424;2023-03-11T10:43:10;101267.00;;;12.39;45.56
76694;BME280;65625;52.136;5.424;2023-03-11T10:45:40;101264.31;;;13.74;45.56
76694;BME280;65625;52.136;5.424;2023-03-11T10:48:14;101251.06;;;15.07;41.79
76694;BME280;65625;52.136;5.424;2023-03-11T10:50:49;101256.25;;;16.39;40.14
76694;BME280;65625;52.136;5.424;2023-03-11T10:53:18;101253.78;;;15.28;39.66
76694;BME280;65625;52.136;5.424;2023-03-11T10:55:56;101256.75;;;15.46;39.62
76694;BME280;65625;52.136;5.424;2023-03-11T10:58:26;101266.66;;;16.74;39.44
76694;BME280;65625;52.136;5.424;2023-03-11T11:01:04;101249.53;;;17.83;37.65
76694;BME280;65625;52.136;5.424;2023-03-11T11:03:33;101257.28;;;16.86;35.64
76694;BME280;65625;52.136;5.424;2023-03-11T11:06:05;101268.63;;;13.66;43.00
76694;BME280;65625;52.136;5.424;2023-03-11T11:08:33;101265.06;;;13.54;41.42
76694;BME280;65625;52.136;5.424;2023-03-11T11:11:01;101267.38;;;15.28;39.50
76694;BME280;65625;52.136;5.424;2023-03-11T11:13:30;101267.34;;;16.85;36.68
76694;BME280;65625;52.136;5.424;2023-03-11T11:16:01;101266.59;;;17.12;38.59
76694;BME280;65625;52.136;5.424;2023-03-11T11:18:43;101271.00;;;18.05;36.78
76694;BME280;65625;52.136;5.424;2023-03-11T11:21:33;101270.06;;;18.59;37.26
76694;BME280;65625;52.136;5.424;2023-03-11T11:26:38;101270.28;;;18.03;35.48
76694;BME280;65625;52.136;5.424;2023-03-11T11:29:06;101263.44;;;17.07;34.24
76694;BME280;65625;52.136;5.424;2023-03-11T11:31:42;101267.53;;;17.49;34.37
76694;BME280;65625;52.136;5.424;2023-03-11T11:34:32;101263.59;;;16.96;33.49
76694;BME280;65625;52.136;5.424;2023-03-11T11:37:01;101274.75;;;16.16;34.43
76694;BME280;65625;52.136;5.424;2023-03-11T11:39:32;101273.75;;;14.02;42.17
76694;BME280;65625;52.136;5.424;2023-03-11T11:42:03;101268.81;;;12.04;42.40
76694;BME280;65625;52.136;5.424;2023-03-11T11:44:33;101274.53;;;11.50;47.81
76694;BME280;65625;52.136;5.424;2023-03-11T11:47:09;101279.63;;;11.68;52.59
76694;BME280;65625;52.136;5.424;2023-03-11T11:49:46;101276.72;;;11.58;50.92
76694;BME280;65625;52.136;5.424;2023-03-11T11:52:19;101275.75;;;11.46;46.73
76694;BME280;65625;52.136;5.424;2023-03-11T11:54:55;101278.66;;;11.43;46.86
76694;BME280;65625;52.136;5.424;2023-03-11T11:57:24;101275.88;;;11.20;48.23
76694;BME280;65625;52.136;5.424;2023-03-11T11:59:50;101282.13;;;10.95;51.21
76694;BME280;65625;52.136;5.424;2023-03-11T12:02:33;101279.09;;;10.87;55.14
76694;BME280;65625;52.136;5.424;2023-03-11T12:05:13;101279.91;;;10.50;54.08
76694;BME280;65625;52.136;5.424;2023-03-11T12:10:30;101288.31;;;10.46;55.19
76694;BME280;65625;52.136;5.424;2023-03-11T12:18:34;101286.03;;;9.58;49.20
76694;BME280;65625;52.136;5.424;2023-03-11T12:21:24;101277.69;;;9.35;51.89
76694;BME280;65625;52.136;5.424;2023-03-11T12:27:05;101263.81;;;8.70;58.51
76694;BME280;65625;52.136;5.424;2023-03-11T12:29:37;101266.94;;;9.21;53.95
76694;BME280;65625;52.136;5.424;2023-03-11T12:32:08;101265.28;;;9.32;54.22
76694;BME280;65625;52.136;5.424;2023-03-11T12:34:45;101260.38;;;9.39;50.70
76694;BME280;65625;52.136;5.424;2023-03-11T12:37:14;101260.31;;;9.26;50.04
76694;BME280;65625;52.136;5.424;2023-03-11T12:39:43;101255.78;;;9.13;52.48
76694;BME280;65625;52.136;5.424;2023-03-11T12:44:37;101263.06;;;9.39;52.82
76694;BME280;65625;52.136;5.424;2023-03-11T12:49:41;101260.47;;;9.37;53.25
76694;BME280;65625;52.136;5.424;2023-03-11T12:57:33;101258.44;;;9.27;51.23
76694;BME280;65625;52.136;5.424;2023-03-11T13:09:02;101263.56;;;9.31;51.21
76694;BME280;65625;52.136;5.424;2023-03-11T13:14:08;101271.25;;;9.23;52.12
76694;BME280;65625;52.136;5.424;2023-03-11T13:16:38;101257.09;;;9.34;52.75
76694;BME280;65625;52.136;5.424;2023-03-11T13:21:58;101251.72;;;9.20;48.47
76694;BME280;65625;52.136;5.424;2023-03-11T13:27:02;101257.50;;;9.14;47.86
76694;BME280;65625;52.136;5.424;2023-03-11T13:32:32;101251.25;;;9.27;49.16
76694;BME280;65625;52.136;5.424;2023-03-11T13:35:23;101244.91;;;9.00;47.10
76694;BME280;65625;52.136;5.424;2023-03-11T13:40:36;101248.66;;;8.98;48.66
76694;BME280;65625;52.136;5.424;2023-03-11T13:43:09;101255.47;;;9.03;48.26
76694;BME280;65625;52.136;5.424;2023-03-11T13:45:37;101255.09;;;8.95;49.23
76694;BME280;65625;52.136;5.424;2023-03-11T13:48:14;101257.00;;;8.93;48.36
76694;BME280;65625;52.136;5.424;2023-03-11T13:50:49;101257.88;;;8.93;47.67
76694;BME280;65625;52.136;5.424;2023-03-11T13:53:24;101252.22;;;9.26;50.42
76694;BME280;65625;52.136;5.424;2023-03-11T13:55:54;101260.38;;;9.39;49.84
76694;BME280;65625;52.136;5.424;2023-03-11T13:58:23;101256.06;;;9.22;45.47
76694;BME280;65625;52.136;5.424;2023-03-11T14:01:00;101257.50;;;9.00;48.28